createdAt,value
2023-05-05T00:02:29.368Z,17.21
2023-05-05T00:05:00.958Z,16.77
2023-05-05T00:07:36.037Z,16.69
2023-05-05T00:10:07.872Z,16.89
2023-05-05T00:12:39.561Z,17.46
2023-05-05T00:15:11.302Z,17.87
2023-05-05T00:17:42.936Z,17.85
2023-05-05T00:20:14.969Z,17.65
2023-05-05T00:22:46.501Z,18.04
2023-05-05T00:25:18.132Z,17.93
2023-05-05T00:27:49.762Z,18.13
2023-05-05T00:30:21.716Z,18.41
2023-05-05T00:32:54.781Z,18.20
2023-05-05T00:35:27.292Z,18.38
2023-05-05T00:37:59.581Z,18.38
2023-05-05T00:40:33.963Z,18.31
2023-05-05T00:43:05.604Z,18.37
2023-05-05T00:45:39.107Z,18.31
2023-05-05T00:48:11.153Z,18.11
2023-05-05T00:50:43.974Z,17.98
2023-05-05T00:53:15.805Z,17.82
2023-05-05T00:55:47.475Z,17.86
2023-05-05T00:58:19.043Z,18.13
2023-05-05T01:00:50.669Z,17.67
2023-05-05T01:03:22.340Z,17.53
2023-05-05T01:06:15.658Z,17.46
2023-05-05T01:09:08.950Z,17.22
2023-05-05T01:11:57.945Z,17.32
2023-05-05T01:15:03.288Z,17.09
2023-05-05T01:17:58.800Z,17.07
2023-05-05T01:20:49.493Z,17.08
2023-05-05T01:23:50.391Z,16.84
2023-05-05T01:27:00.506Z,16.62
2023-05-05T01:30:03.401Z,16.87
2023-05-05T01:32:43.700Z,16.65
2023-05-05T01:35:20.727Z,16.76
2023-05-05T01:38:05.720Z,16.87
2023-05-05T01:41:12.343Z,17.15
2023-05-05T01:43:48.507Z,16.98
2023-05-05T01:46:23.761Z,17.34
2023-05-05T01:48:56.982Z,17.40
2023-05-05T01:51:29.504Z,17.30
2023-05-05T01:54:05.682Z,17.62
2023-05-05T01:56:41.818Z,17.67
2023-05-05T01:59:13.901Z,17.74
2023-05-05T02:01:48.701Z,17.27
2023-05-05T02:04:22.907Z,16.76
2023-05-05T02:06:56.441Z,17.10
2023-05-05T02:09:34.305Z,16.97
2023-05-05T02:12:08.188Z,16.92
2023-05-05T02:14:42.485Z,16.78
2023-05-05T02:17:17.033Z,16.84
2023-05-05T02:19:52.519Z,16.63
2023-05-05T02:22:24.360Z,16.68
2023-05-05T02:24:59.069Z,16.91
2023-05-05T02:27:33.980Z,17.24
2023-05-05T02:30:11.145Z,17.20
2023-05-05T02:32:56.666Z,17.36
2023-05-05T02:35:41.033Z,16.79
2023-05-05T02:38:18.622Z,16.96
2023-05-05T02:40:59.287Z,16.85
2023-05-05T02:43:31.989Z,16.91
2023-05-05T02:46:03.606Z,16.79
2023-05-05T02:48:43.124Z,17.09
2023-05-05T02:51:14.739Z,17.02
2023-05-05T02:53:46.600Z,16.85
2023-05-05T02:56:49.027Z,16.54
2023-05-05T03:00:07.377Z,16.47
2023-05-05T03:03:03.095Z,16.63
2023-05-05T03:05:45.895Z,16.28
2023-05-05T03:08:28.232Z,16.23
2023-05-05T03:11:06.510Z,16.41
2023-05-05T03:13:44.187Z,16.36
2023-05-05T03:16:18.942Z,16.50
2023-05-05T03:18:52.480Z,16.32
2023-05-05T03:21:24.646Z,16.42
2023-05-05T03:23:58.273Z,16.36
2023-05-05T03:26:29.815Z,16.25
2023-05-05T03:29:01.401Z,15.83
2023-05-05T03:31:33.513Z,16.14
2023-05-05T03:34:06.134Z,15.88
2023-05-05T03:36:38.822Z,15.94
2023-05-05T03:39:10.785Z,15.91
2023-05-05T03:41:42.470Z,16.05
2023-05-05T03:44:14.100Z,16.20
2023-05-05T03:46:45.766Z,16.33
2023-05-05T03:49:17.323Z,16.19
2023-05-05T03:51:48.973Z,16.26
2023-05-05T03:54:20.593Z,16.45
2023-05-05T03:56:52.253Z,16.57
2023-05-05T03:59:23.764Z,16.52
2023-05-05T04:01:55.418Z,16.42
2023-05-05T04:04:27.134Z,16.29
2023-05-05T04:06:58.717Z,16.35
2023-05-05T04:09:30.384Z,16.26
2023-05-05T04:12:03.110Z,16.16
2023-05-05T04:14:34.748Z,16.18
2023-05-05T04:17:06.505Z,16.09
2023-05-05T04:19:40.214Z,16.18
2023-05-05T04:22:13.900Z,16.15
2023-05-05T04:24:45.604Z,16.12
2023-05-05T04:27:17.239Z,16.34
2023-05-05T04:29:48.932Z,16.09
2023-05-05T04:32:20.842Z,16.24
2023-05-05T04:34:52.738Z,16.40
2023-05-05T04:37:25.657Z,16.66
2023-05-05T04:39:57.262Z,16.68
2023-05-05T04:42:28.965Z,16.77
2023-05-05T04:45:04.357Z,16.54
2023-05-05T04:47:40.622Z,16.63
2023-05-05T04:50:12.478Z,16.32
2023-05-05T04:52:44.073Z,16.80
2023-05-05T04:55:15.731Z,17.02
2023-05-05T04:57:47.337Z,17.31
2023-05-05T05:00:19.112Z,17.46
2023-05-05T05:02:50.745Z,17.69
2023-05-05T05:05:22.668Z,17.86
2023-05-05T05:07:54.322Z,17.96
2023-05-05T05:10:25.920Z,18.11
2023-05-05T05:12:57.533Z,18.11
2023-05-05T05:15:29.086Z,18.47
2023-05-05T05:18:00.807Z,18.47
2023-05-05T05:20:32.398Z,18.45
2023-05-05T05:23:04.610Z,18.54
2023-05-05T05:25:36.181Z,18.83
2023-05-05T05:28:10.768Z,19.28
2023-05-05T05:30:42.587Z,19.68
2023-05-05T05:33:14.524Z,20.00
2023-05-05T05:35:46.470Z,20.35
2023-05-05T05:38:18.102Z,21.11
2023-05-05T05:40:49.720Z,21.55
2023-05-05T05:43:21.332Z,21.65
2023-05-05T05:45:53.000Z,22.11
2023-05-05T05:48:28.413Z,22.30
2023-05-05T05:51:00.202Z,21.83
2023-05-05T05:53:31.982Z,21.91
2023-05-05T05:56:04.244Z,21.95
2023-05-05T05:58:35.820Z,22.43
2023-05-05T06:01:07.422Z,22.58
2023-05-05T06:03:39.021Z,22.95
2023-05-05T06:06:12.984Z,23.23
2023-05-05T06:08:44.652Z,23.50
2023-05-05T06:11:16.208Z,23.82
2023-05-05T06:13:47.834Z,23.98
2023-05-05T06:16:19.376Z,24.20
2023-05-05T06:18:51.025Z,24.56
2023-05-05T06:21:22.664Z,25.03
2023-05-05T06:23:54.260Z,25.14
2023-05-05T06:26:28.444Z,27.16
2023-05-05T06:29:00.065Z,26.90
2023-05-05T06:31:31.723Z,26.16
2023-05-05T06:34:03.616Z,25.87
2023-05-05T06:36:35.757Z,24.90
2023-05-05T06:39:07.749Z,24.54
2023-05-05T06:41:39.339Z,24.54
2023-05-05T06:44:11.409Z,23.94
2023-05-05T06:46:43.789Z,23.96
2023-05-05T06:49:15.518Z,24.59
2023-05-05T06:51:47.081Z,24.64
2023-05-05T06:54:18.699Z,23.44
2023-05-05T06:56:50.320Z,23.64
2023-05-05T06:59:24.222Z,23.55
2023-05-05T07:01:59.574Z,23.64
2023-05-05T07:04:31.657Z,23.41
2023-05-05T07:07:03.308Z,23.39
2023-05-05T07:09:34.923Z,23.34
2023-05-05T07:12:14.714Z,23.31
2023-05-05T07:14:47.001Z,23.06
2023-05-05T07:17:18.810Z,23.49
2023-05-05T07:19:51.401Z,23.95
2023-05-05T07:22:22.962Z,24.03
2023-05-05T07:24:54.568Z,24.27
2023-05-05T07:27:26.562Z,24.59
2023-05-05T07:29:58.498Z,24.75
2023-05-05T07:32:30.117Z,24.85
2023-05-05T07:35:01.802Z,25.04
2023-05-05T07:37:33.479Z,24.19
2023-05-05T07:40:06.401Z,24.82
2023-05-05T07:42:38.238Z,26.43
2023-05-05T07:45:10.318Z,27.73
2023-05-05T07:47:41.902Z,27.72
2023-05-05T07:50:13.674Z,27.51
2023-05-05T07:52:49.874Z,27.85
2023-05-05T07:55:27.886Z,28.81
2023-05-05T07:57:59.443Z,30.65
2023-05-05T08:00:31.010Z,30.97
2023-05-05T08:03:02.617Z,32.52
2023-05-05T08:05:34.272Z,32.87
2023-05-05T08:08:06.994Z,35.17
2023-05-05T08:10:38.675Z,33.64
2023-05-05T08:13:10.288Z,31.59
2023-05-05T08:15:41.950Z,32.11
2023-05-05T08:18:14.692Z,32.23
2023-05-05T08:20:46.570Z,32.29
2023-05-05T08:23:18.103Z,34.11
2023-05-05T08:25:49.875Z,34.82
2023-05-05T08:28:21.404Z,31.42
2023-05-05T08:30:53.044Z,32.81
2023-05-05T08:33:25.205Z,31.72
2023-05-05T08:35:56.924Z,32.73
2023-05-05T08:38:30.891Z,31.63
2023-05-05T08:41:02.817Z,31.44
2023-05-05T08:43:35.938Z,31.59
2023-05-05T08:46:12.273Z,31.27
2023-05-05T08:48:45.974Z,30.77
2023-05-05T08:51:19.805Z,30.73
2023-05-05T08:53:54.245Z,30.16
2023-05-05T08:56:31.138Z,31.30
2023-05-05T08:59:02.964Z,27.52
2023-05-05T09:01:36.135Z,29.33
2023-05-05T09:04:16.632Z,29.74
2023-05-05T09:06:48.273Z,30.33
2023-05-05T09:09:20.611Z,31.79
2023-05-05T09:11:53.738Z,30.17
2023-05-05T09:14:25.590Z,31.08
2023-05-05T09:16:59.243Z,32.03
2023-05-05T09:19:30.943Z,32.15
2023-05-05T09:22:02.518Z,31.89
2023-05-05T09:25:10.150Z,30.48
2023-05-05T09:27:49.391Z,30.49
2023-05-05T09:30:26.115Z,30.02
2023-05-05T09:32:57.725Z,28.24
2023-05-05T09:35:47.287Z,30.32
2023-05-05T09:38:20.816Z,28.78
2023-05-05T09:40:54.105Z,30.59
2023-05-05T09:43:25.687Z,30.92
2023-05-05T09:46:08.185Z,32.00
2023-05-05T09:48:43.081Z,27.97
2023-05-05T09:51:14.915Z,30.32
2023-05-05T09:53:46.521Z,31.51
2023-05-05T09:56:23.431Z,31.22
2023-05-05T09:59:09.423Z,30.97
2023-05-05T10:01:43.414Z,27.94
2023-05-05T10:04:28.561Z,27.53
2023-05-05T10:07:00.327Z,26.66
2023-05-05T10:09:32.733Z,27.51
2023-05-05T10:12:06.028Z,29.28
2023-05-05T10:14:37.800Z,29.76
2023-05-05T10:17:10.189Z,30.16
2023-05-05T10:19:42.726Z,30.60
2023-05-05T10:22:14.679Z,29.44
2023-05-05T10:25:01.732Z,30.14
2023-05-05T10:27:43.660Z,32.51
2023-05-05T10:30:24.481Z,32.20
2023-05-05T10:33:30.105Z,29.22
2023-05-05T10:36:05.361Z,29.38
2023-05-05T10:38:38.142Z,28.45
2023-05-05T10:41:11.564Z,30.53
2023-05-05T10:43:46.377Z,32.34
2023-05-05T10:46:18.342Z,32.79
2023-05-05T10:49:04.312Z,31.58
2023-05-05T10:52:30.820Z,32.00
2023-05-05T10:55:16.205Z,32.40
2023-05-05T10:57:53.567Z,28.13
2023-05-05T11:00:40.485Z,29.60
2023-05-05T11:03:18.397Z,30.58
2023-05-05T11:06:07.931Z,30.18
2023-05-05T11:08:44.264Z,30.57
2023-05-05T11:11:16.194Z,31.79
2023-05-05T11:14:07.762Z,30.93
2023-05-05T11:16:48.229Z,32.53
2023-05-05T11:19:46.091Z,31.82
2023-05-05T11:22:17.803Z,29.25
2023-05-05T11:24:49.362Z,31.11
2023-05-05T11:27:21.128Z,32.54
2023-05-05T11:30:04.667Z,32.97
2023-05-05T11:32:36.443Z,30.70
2023-05-05T11:35:08.175Z,31.72
2023-05-05T11:37:39.988Z,32.58
2023-05-05T11:40:42.816Z,27.52
2023-05-05T11:43:20.681Z,27.62
2023-05-05T11:46:19.560Z,29.99
2023-05-05T11:48:53.035Z,31.24
2023-05-05T11:51:25.422Z,31.14
2023-05-05T11:53:58.501Z,31.83
2023-05-05T11:56:30.782Z,31.63
2023-05-05T11:59:20.543Z,31.12
2023-05-05T12:01:52.796Z,27.90
2023-05-05T12:04:24.636Z,27.98
2023-05-05T12:06:58.507Z,30.88
2023-05-05T12:09:30.143Z,32.20
2023-05-05T12:12:02.730Z,32.48
2023-05-05T12:14:34.533Z,32.88
2023-05-05T12:17:12.647Z,32.54
2023-05-05T12:19:53.396Z,31.22
2023-05-05T12:22:26.788Z,32.26
2023-05-05T12:25:01.568Z,31.96
2023-05-05T12:27:36.476Z,31.52
2023-05-05T12:30:19.588Z,30.14
2023-05-05T12:33:03.108Z,28.49
2023-05-05T12:35:35.196Z,30.05
2023-05-05T12:38:07.242Z,31.07
2023-05-05T12:40:49.712Z,30.66
2023-05-05T12:43:31.919Z,31.44
2023-05-05T12:46:12.031Z,32.33
2023-05-05T12:48:46.398Z,33.35
2023-05-05T12:51:23.067Z,33.49
2023-05-05T12:54:12.041Z,34.46
2023-05-05T12:56:47.159Z,33.50
2023-05-05T12:59:21.834Z,32.47
2023-05-05T13:01:54.879Z,33.56
2023-05-05T13:04:28.522Z,34.49
2023-05-05T13:07:15.017Z,34.09
2023-05-05T13:09:50.652Z,34.02
2023-05-05T13:12:25.326Z,31.50
2023-05-05T13:14:56.990Z,33.90
2023-05-05T13:17:28.726Z,33.99
2023-05-05T13:20:02.363Z,33.49
2023-05-05T13:22:33.925Z,33.16
2023-05-05T13:25:06.145Z,32.74
2023-05-05T13:27:37.886Z,34.28
2023-05-05T13:30:10.399Z,34.31
2023-05-05T13:32:42.286Z,34.26
2023-05-05T13:35:16.008Z,34.46
2023-05-05T13:37:48.538Z,33.65
2023-05-05T13:40:20.087Z,33.55
2023-05-05T13:42:51.784Z,32.80
2023-05-05T13:45:23.302Z,33.01
2023-05-05T13:47:54.893Z,33.18
2023-05-05T13:50:26.563Z,31.99
2023-05-05T13:52:58.142Z,34.03
2023-05-05T13:55:30.027Z,34.12
2023-05-05T13:58:01.636Z,33.64
2023-05-05T14:00:34.649Z,33.30
2023-05-05T14:03:06.322Z,33.21
2023-05-05T14:05:44.587Z,33.50
2023-05-05T14:08:16.516Z,33.51
2023-05-05T14:10:49.541Z,33.53
2023-05-05T14:13:23.019Z,33.00
2023-05-05T14:15:54.631Z,33.17
2023-05-05T14:18:26.285Z,33.42
2023-05-05T14:20:57.907Z,33.78
2023-05-05T14:23:32.644Z,32.23
2023-05-05T14:26:04.262Z,32.91
2023-05-05T14:28:35.953Z,32.86
2023-05-05T14:31:07.653Z,33.06
2023-05-05T14:33:39.321Z,33.17
2023-05-05T14:36:11.125Z,32.69
2023-05-05T14:38:43.020Z,32.60
2023-05-05T14:41:14.806Z,33.11
2023-05-05T14:43:46.337Z,32.95
2023-05-05T14:46:21.170Z,33.11
2023-05-05T14:48:55.857Z,32.65
2023-05-05T14:51:27.701Z,32.67
2023-05-05T14:53:59.529Z,32.24
2023-05-05T14:56:31.155Z,32.21
2023-05-05T14:59:02.706Z,32.06
2023-05-05T15:01:34.374Z,31.47
2023-05-05T15:04:06.331Z,31.89
2023-05-05T15:06:37.990Z,31.68
2023-05-05T15:09:09.628Z,31.43
2023-05-05T15:11:41.418Z,31.12
2023-05-05T15:14:15.398Z,30.85
2023-05-05T15:16:47.013Z,30.69
2023-05-05T15:19:18.596Z,30.67
2023-05-05T15:21:53.271Z,30.09
2023-05-05T15:24:24.935Z,30.00
2023-05-05T15:26:57.532Z,29.89
2023-05-05T15:29:29.132Z,29.78
2023-05-05T15:32:01.158Z,29.54
2023-05-05T15:34:32.863Z,29.18
2023-05-05T15:37:04.717Z,28.94
2023-05-05T15:39:36.657Z,28.61
2023-05-05T15:42:08.303Z,28.49
2023-05-05T15:44:39.908Z,28.21
2023-05-05T15:47:11.536Z,28.20
2023-05-05T15:49:43.233Z,28.11
2023-05-05T15:52:14.956Z,27.94
2023-05-05T15:54:46.542Z,27.79
2023-05-05T15:57:18.256Z,27.91
2023-05-05T15:59:53.672Z,27.91
2023-05-05T16:02:25.598Z,27.87
2023-05-05T16:04:57.240Z,27.60
2023-05-05T16:07:28.968Z,27.48
2023-05-05T16:10:00.631Z,27.32
2023-05-05T16:12:32.295Z,27.32
2023-05-05T16:15:04.346Z,27.22
2023-05-05T16:17:39.525Z,26.53
2023-05-05T16:20:11.761Z,25.79
2023-05-05T16:22:43.366Z,25.01
2023-05-05T16:25:18.312Z,24.25
2023-05-05T16:27:52.254Z,23.77
2023-05-05T16:30:24.047Z,23.96
2023-05-05T16:32:55.707Z,23.18
2023-05-05T16:35:27.475Z,22.01
2023-05-05T16:38:01.988Z,20.91
2023-05-05T16:40:36.346Z,20.09
2023-05-05T16:43:08.080Z,19.51
2023-05-05T16:45:39.631Z,19.83
2023-05-05T16:48:11.450Z,20.20
2023-05-05T16:50:47.218Z,20.46
2023-05-05T16:53:18.926Z,20.06
2023-05-05T16:55:54.814Z,20.01
2023-05-05T16:58:26.859Z,20.44
2023-05-05T17:00:58.523Z,19.78
2023-05-05T17:03:30.398Z,19.28
2023-05-05T17:06:02.080Z,19.70
2023-05-05T17:08:34.316Z,19.76
2023-05-05T17:11:10.985Z,20.08
2023-05-05T17:13:46.130Z,20.44
2023-05-05T17:16:18.568Z,20.53
2023-05-05T17:18:50.142Z,20.15
2023-05-05T17:21:22.576Z,19.43
2023-05-05T17:23:54.183Z,19.53
2023-05-05T17:26:25.956Z,20.53
2023-05-05T17:28:57.576Z,19.91
2023-05-05T17:31:29.216Z,19.97
2023-05-05T17:34:00.946Z,19.68
2023-05-05T17:36:33.550Z,19.64
2023-05-05T17:39:05.964Z,19.31
2023-05-05T17:41:40.129Z,20.19
2023-05-05T17:44:11.842Z,20.36
2023-05-05T17:46:43.690Z,20.59
2023-05-05T17:49:15.427Z,21.02
2023-05-05T17:51:47.182Z,21.19
2023-05-05T17:54:19.060Z,21.43
2023-05-05T17:56:50.685Z,21.60
2023-05-05T17:59:26.072Z,21.40
2023-05-05T18:01:57.704Z,20.97
2023-05-05T18:04:31.491Z,21.49
2023-05-05T18:07:06.359Z,21.20
2023-05-05T18:09:39.582Z,20.83
2023-05-05T18:12:11.292Z,20.72
2023-05-05T18:14:43.153Z,20.73
2023-05-05T18:17:14.795Z,20.56
2023-05-05T18:19:49.106Z,19.49
2023-05-05T18:22:21.883Z,20.08
2023-05-05T18:24:58.934Z,19.95
2023-05-05T18:27:32.703Z,20.30
2023-05-05T18:30:05.307Z,20.80
2023-05-05T18:32:37.490Z,20.71
2023-05-05T18:35:10.060Z,20.25
2023-05-05T18:37:42.287Z,19.87
2023-05-05T18:40:14.164Z,20.40
2023-05-05T18:42:45.788Z,20.26
2023-05-05T18:45:17.537Z,20.32
2023-05-05T18:47:49.266Z,20.29
2023-05-05T18:50:20.928Z,20.40
2023-05-05T18:52:52.616Z,20.06
2023-05-05T18:55:24.312Z,20.52
2023-05-05T18:57:55.945Z,20.37
2023-05-05T19:00:27.604Z,20.53
2023-05-05T19:02:59.348Z,20.57
2023-05-05T19:05:34.061Z,20.65
2023-05-05T19:08:05.840Z,20.67
2023-05-05T19:10:40.672Z,19.53
2023-05-05T19:13:12.880Z,20.44
2023-05-05T19:15:48.301Z,20.75
2023-05-05T19:18:24.704Z,20.59
2023-05-05T19:20:56.415Z,20.42
2023-05-05T19:23:32.005Z,20.73
2023-05-05T19:26:04.517Z,20.95
2023-05-05T19:28:36.189Z,20.70
2023-05-05T19:31:07.745Z,20.82
2023-05-05T19:33:42.348Z,20.98
2023-05-05T19:36:14.063Z,20.58
2023-05-05T19:38:46.725Z,20.67
2023-05-05T19:41:18.522Z,20.83
2023-05-05T19:43:50.110Z,20.69
2023-05-05T19:46:23.773Z,20.63
2023-05-05T19:48:58.155Z,21.01
2023-05-05T19:51:30.044Z,21.12
2023-05-05T19:54:01.674Z,21.26
2023-05-05T19:56:33.343Z,21.22
2023-05-05T19:59:06.344Z,21.13
2023-05-05T20:01:41.436Z,21.10
2023-05-05T20:04:16.027Z,20.77
2023-05-05T20:06:47.618Z,20.82
2023-05-05T20:09:19.267Z,20.69
2023-05-05T20:11:53.558Z,20.91
2023-05-05T20:14:25.617Z,20.66
2023-05-05T20:16:57.183Z,20.84
2023-05-05T20:19:28.879Z,20.90
2023-05-05T20:22:02.545Z,20.64
2023-05-05T20:24:34.195Z,20.85
2023-05-05T20:27:06.979Z,20.80
2023-05-05T20:29:38.574Z,20.92
2023-05-05T20:32:10.243Z,20.93
2023-05-05T20:34:41.785Z,20.79
2023-05-05T20:37:14.003Z,20.48
2023-05-05T20:39:47.308Z,20.44
2023-05-05T20:42:19.811Z,20.39
2023-05-05T20:44:51.437Z,20.33
2023-05-05T20:47:23.056Z,20.26
2023-05-05T20:49:54.709Z,20.19
2023-05-05T20:52:26.272Z,20.19
2023-05-05T20:54:57.944Z,20.07
2023-05-05T20:57:29.558Z,19.72
2023-05-05T21:00:01.196Z,19.60
2023-05-05T21:02:32.857Z,19.74
2023-05-05T21:05:08.089Z,19.78
2023-05-05T21:07:39.945Z,19.59
2023-05-05T21:10:11.883Z,19.64
2023-05-05T21:12:43.692Z,19.73
2023-05-05T21:15:16.692Z,19.65
2023-05-05T21:17:48.512Z,19.22
2023-05-05T21:20:20.334Z,18.90
2023-05-05T21:22:51.935Z,19.21
2023-05-05T21:25:24.273Z,19.10
2023-05-05T21:27:56.271Z,19.17
2023-05-05T21:30:28.081Z,19.08
2023-05-05T21:33:00.152Z,19.00
2023-05-05T21:35:31.901Z,18.88
2023-05-05T21:38:03.635Z,19.06
2023-05-05T21:40:35.367Z,18.79
2023-05-05T21:43:07.006Z,18.58
2023-05-05T21:45:39.157Z,18.68
2023-05-05T21:48:10.796Z,18.52
2023-05-05T21:50:43.051Z,18.25
2023-05-05T21:53:14.701Z,18.04
2023-05-05T21:55:46.471Z,18.07
2023-05-05T21:58:18.034Z,17.96
2023-05-05T22:00:50.133Z,18.15
2023-05-05T22:03:21.765Z,18.21
2023-05-05T22:05:53.464Z,18.32
2023-05-05T22:08:25.087Z,18.21
2023-05-05T22:10:56.709Z,18.24
2023-05-05T22:13:28.304Z,18.08
2023-05-05T22:15:59.990Z,17.88
2023-05-05T22:18:35.685Z,17.80
2023-05-05T22:21:07.342Z,17.86
2023-05-05T22:23:41.477Z,18.14
2023-05-05T22:26:13.119Z,18.23
2023-05-05T22:28:44.713Z,18.38
2023-05-05T22:31:16.802Z,18.40
2023-05-05T22:33:48.468Z,18.65
2023-05-05T22:36:20.148Z,18.78
2023-05-05T22:38:54.592Z,18.84
2023-05-05T22:41:26.293Z,18.93
2023-05-05T22:43:58.001Z,18.91
2023-05-05T22:46:29.840Z,19.27
2023-05-05T22:49:04.701Z,19.31
2023-05-05T22:51:36.363Z,19.42
2023-05-05T22:54:08.004Z,19.48
2023-05-05T22:56:42.821Z,19.63
2023-05-05T22:59:14.604Z,19.56
2023-05-05T23:01:46.395Z,19.76
2023-05-05T23:04:18.244Z,19.71
2023-05-05T23:06:49.919Z,19.61
2023-05-05T23:09:21.607Z,19.51
2023-05-05T23:11:53.324Z,19.55
2023-05-05T23:14:24.930Z,19.35
2023-05-05T23:16:59.602Z,18.87
2023-05-05T23:19:32.622Z,19.39
2023-05-05T23:22:07.004Z,19.58
2023-05-05T23:24:38.616Z,19.62
2023-05-05T23:27:10.253Z,19.58
2023-05-05T23:29:44.996Z,19.55
2023-05-05T23:32:16.572Z,19.49
2023-05-05T23:34:51.043Z,19.52
2023-05-05T23:37:23.034Z,19.51
2023-05-05T23:39:54.705Z,19.57
2023-05-05T23:42:29.243Z,19.68
2023-05-05T23:45:03.286Z,19.66
2023-05-05T23:47:36.834Z,19.52
2023-05-05T23:50:09.316Z,19.57
2023-05-05T23:52:41.845Z,19.56
2023-05-05T23:55:14.408Z,19.66
2023-05-05T23:57:45.988Z,19.76
